Time;durP1;ratioP1;P1;durP2;ratioP2;P2;SDS_P1;SDS_P2;PMS_P1;PMS_P2;Temp;Humidity;BMP_temperature;BMP_pressure;BME280_temperature;BME280_humidity;BME280_pressure;Samples;Min_cycle;Max_cycle;Signal;HPM_P1;HPM_P2
2023/10/14 00:00:47;;;;;;;10.70;4.90;;;;;;;17.96;68.79;96329.16;108966;1267;22521;-75
2023/10/14 00:03:36;;;;;;;7.70;4.00;;;;;;;17.93;68.69;96324.70;109003;1272;22551;-76
2023/10/14 00:06:07;;;;;;;8.40;4.40;;;;;;;17.92;68.49;96326.88;108960;1264;22530;-76
2023/10/14 00:08:47;;;;;;;12.10;4.70;;;;;;;17.91;68.23;96325.15;108964;1267;32990;-75
2023/10/14 00:11:21;;;;;;;8.50;4.50;;;;;;;17.92;68.09;96320.77;108926;1272;22521;-75
2023/10/14 00:13:53;;;;;;;10.10;4.20;;;;;;;17.95;67.71;96312.44;108932;1272;23861;-75
2023/10/14 00:16:29;;;;;;;8.10;4.40;;;;;;;17.95;67.78;96310.74;108906;1272;23841;-75
2023/10/14 00:19:08;;;;;;;6.70;4.10;;;;;;;17.90;67.83;96298.48;108917;1267;31862;-76
2023/10/14 00:21:42;;;;;;;9.60;4.40;;;;;;;17.86;67.67;96289.95;108895;1272;22532;-75
2023/10/14 00:24:25;;;;;;;12.40;5.30;;;;;;;17.85;67.55;96287.70;108915;1268;22553;-75
2023/10/14 00:26:58;;;;;;;11.10;4.50;;;;;;;17.87;67.49;96281.90;108933;1272;53531;-75
2023/10/14 00:29:30;;;;;;;8.50;4.60;;;;;;;17.90;67.14;96280.77;108913;1270;22627;-75
2023/10/14 00:32:03;;;;;;;10.70;4.60;;;;;;;17.95;66.88;96277.39;108977;1272;22521;-75
2023/10/14 00:34:34;;;;;;;11.80;4.50;;;;;;;17.97;66.62;96263.89;108941;1272;22618;-75
2023/10/14 00:37:09;;;;;;;9.50;4.30;;;;;;;18.03;66.10;96256.38;108885;1267;45121;-75
2023/10/14 00:39:43;;;;;;;9.00;3.70;;;;;;;18.09;65.66;96246.07;108951;1269;22512;-75
2023/10/14 00:42:15;;;;;;;5.80;3.40;;;;;;;18.16;64.82;96236.05;108957;1272;23967;-75
2023/10/14 00:44:47;;;;;;;7.60;3.70;;;;;;;18.28;64.22;96231.46;108916;1272;22572;-76
2023/10/14 00:47:18;;;;;;;11.20;3.70;;;;;;;18.32;63.27;96225.08;108906;1272;55103;-76
2023/10/14 00:49:52;;;;;;;9.40;3.70;;;;;;;18.40;62.32;96226.15;108936;1267;22743;-76
2023/10/14 00:52:29;;;;;;;12.00;3.80;;;;;;;18.38;62.32;96226.40;108926;1272;22525;-75
2023/10/14 00:55:12;;;;;;;7.60;3.30;;;;;;;18.29;62.02;96219.77;108935;1272;24180;-75
2023/10/14 00:57:54;;;;;;;7.90;3.40;;;;;;;18.29;61.41;96223.15;108950;1272;38478;-76
2023/10/14 01:00:34;;;;;;;8.30;3.60;;;;;;;18.33;60.55;96216.91;108933;1263;22514;-75
2023/10/14 01:03:10;;;;;;;9.70;3.90;;;;;;;18.51;59.46;96218.80;108934;1272;24598;-74
2023/10/14 01:05:42;;;;;;;9.50;3.30;;;;;;;18.58;59.22;96221.91;108945;1266;22484;-75
2023/10/14 01:08:17;;;;;;;8.40;3.30;;;;;;;18.58;58.87;96220.55;108947;1272;66657;-74
2023/10/14 01:10:49;;;;;;;8.10;3.70;;;;;;;18.58;58.56;96221.80;108899;1270;24954;-75
2023/10/14 01:13:23;;;;;;;9.90;4.10;;;;;;;18.61;57.87;96212.59;108912;1266;24218;-75
2023/10/14 01:16:01;;;;;;;7.10;3.20;;;;;;;18.62;58.31;96206.65;108946;1272;23963;-75
2023/10/14 01:18:34;;;;;;;9.40;3.60;;;;;;;18.56;58.13;96200.70;108862;1270;43245;-75
2023/10/14 01:21:06;;;;;;;11.10;4.40;;;;;;;18.55;58.02;96192.52;108945;1269;22538;-75
2023/10/14 01:23:45;;;;;;;8.30;3.20;;;;;;;18.51;58.14;96185.36;108918;1272;22548;-75
2023/10/14 01:26:17;;;;;;;8.60;3.60;;;;;;;18.46;57.56;96186.48;108941;1272;22514;-75
2023/10/14 01:28:58;;;;;;;9.60;3.60;;;;;;;18.43;57.45;96175.00;108833;1270;82241;-75
2023/10/14 01:32:10;;;;;;;8.00;3.70;;;;;;;18.40;57.54;96178.06;108949;1272;22532;-75
2023/10/14 01:34:44;;;;;;;13.50;4.40;;;;;;;18.35;57.69;96170.13;108967;1272;25298;-75
2023/10/14 01:37:19;;;;;;;9.90;3.80;;;;;;;18.29;58.02;96169.41;108929;1251;33580;-75
2023/10/14 01:39:56;;;;;;;9.80;3.60;;;;;;;18.19;58.27;96162.80;108893;1272;22522;-75
2023/10/14 01:42:30;;;;;;;5.90;3.50;;;;;;;18.09;58.23;96156.60;108896;1272;22519;-75
2023/10/14 01:45:01;;;;;;;6.80;2.70;;;;;;;18.09;58.11;96152.71;108951;1272;23792;-75
2023/10/14 01:47:43;;;;;;;8.50;3.00;;;;;;;18.13;57.88;96155.25;108897;1272;24072;-75
2023/10/14 01:50:15;;;;;;;8.60;3.20;;;;;;;18.13;57.77;96153.50;108993;1267;25282;-75
2023/10/14 01:52:47;;;;;;;7.40;3.20;;;;;;;18.17;57.51;96148.19;108925;1267;23207;-75
2023/10/14 01:55:21;;;;;;;7.80;4.00;;;;;;;18.21;57.44;96145.48;108925;1257;22530;-75
2023/10/14 01:57:53;;;;;;;9.80;3.50;;;;;;;18.18;57.36;96145.85;108921;1272;53085;-76
2023/10/14 02:00:35;;;;;;;9.70;4.20;;;;;;;18.20;56.98;96137.92;108962;1272;22502;-76
2023/10/14 02:03:10;;;;;;;8.40;3.20;;;;;;;18.15;57.33;96139.70;108981;1272;23776;-76
2023/10/14 02:05:42;;;;;;;7.50;3.40;;;;;;;18.07;57.43;96127.44;108986;1265;22586;-75
2023/10/14 02:08:16;;;;;;;11.00;3.70;;;;;;;18.07;57.18;96129.55;108965;1267;37262;-75
2023/10/14 02:10:47;;;;;;;8.10;4.00;;;;;;;18.08;56.92;96115.20;108922;1272;22520;-75
2023/10/14 02:13:21;;;;;;;7.90;3.50;;;;;;;18.10;56.68;96119.31;109044;1266;22568;-76
2023/10/14 02:15:59;;;;;;;11.40;3.70;;;;;;;18.10;56.41;96111.48;108955;1270;22541;-75
2023/10/14 02:18:36;;;;;;;9.80;3.30;;;;;;;18.06;56.68;96105.09;108894;1265;46811;-77
2023/10/14 02:21:19;;;;;;;8.20;3.70;;;;;;;18.01;56.23;96099.02;108987;1272;22518;-75
2023/10/14 02:23:50;;;;;;;8.10;3.00;;;;;;;17.98;56.80;96091.59;108997;1272;25240;-75
2023/10/14 02:26:27;;;;;;;11.10;3.50;;;;;;;17.87;56.95;96086.36;108979;1272;22895;-75
2023/10/14 02:28:59;;;;;;;7.70;3.70;;;;;;;17.74;57.49;96085.11;108952;1266;65425;-75
2023/10/14 02:31:35;;;;;;;7.70;3.50;;;;;;;17.58;57.70;96080.70;108903;1272;24218;-75
2023/10/14 02:34:08;;;;;;;9.70;3.50;;;;;;;17.48;58.07;96077.93;108982;1272;25268;-75
2023/10/14 02:36:48;;;;;;;10.30;3.80;;;;;;;17.39;58.57;96079.84;108958;1272;24235;-75
2023/10/14 02:39:26;;;;;;;9.70;3.80;;;;;;;17.30;58.91;96070.92;108941;1265;22650;-75
2023/10/14 02:42:07;;;;;;;12.40;4.20;;;;;;;17.22;59.23;96074.88;108976;1266;23907;-75
2023/10/14 02:44:46;;;;;;;10.30;3.90;;;;;;;17.14;59.54;96070.11;109017;1268;22514;-75
2023/10/14 02:47:19;;;;;;;7.90;3.70;;;;;;;17.07;59.66;96063.61;108884;1272;38790;-75
2023/10/14 02:49:57;;;;;;;7.20;3.70;;;;;;;17.04;59.87;96060.98;108921;1272;25339;-75
2023/10/14 02:52:30;;;;;;;9.20;3.70;;;;;;;16.99;60.02;96057.20;108973;1257;24213;-75
2023/10/14 02:57:49;;;;;;;8.40;3.50;;;;;;;16.88;60.12;96045.45;108890;1272;26017;-75
2023/10/14 03:00:29;;;;;;;5.40;3.10;;;;;;;16.86;60.06;96043.99;108961;1265;22552;-75
2023/10/14 03:03:03;;;;;;;7.80;3.10;;;;;;;16.87;59.75;96035.31;108892;1269;22653;-75
2023/10/14 03:05:50;;;;;;;10.80;4.40;;;;;;;16.92;59.60;96027.75;108915;1272;24225;-75
2023/10/14 03:08:22;;;;;;;9.50;3.30;;;;;;;16.93;59.47;96029.25;108895;1266;35340;-75
2023/10/14 03:10:56;;;;;;;6.00;2.80;;;;;;;16.91;59.30;96020.77;108960;1272;22595;-75
2023/10/14 03:13:29;;;;;;;7.40;2.90;;;;;;;16.92;59.10;96025.55;108868;1266;24328;-75
2023/10/14 03:16:04;;;;;;;9.70;2.90;;;;;;;16.91;58.74;96024.14;108922;1266;22514;-75
2023/10/14 03:18:40;;;;;;;10.90;3.30;;;;;;;16.98;58.48;96024.67;108809;1272;84712;-75
2023/10/14 03:21:27;;;;;;;8.30;3.20;;;;;;;17.07;58.10;96021.59;108912;1272;25233;-76
2023/10/14 03:23:58;;;;;;;9.20;2.90;;;;;;;17.39;57.23;96004.97;108931;1266;23804;-75
2023/10/14 03:26:33;;;;;;;9.90;3.50;;;;;;;17.71;56.53;96010.48;108960;1272;25287;-75
2023/10/14 03:29:12;;;;;;;9.30;3.50;;;;;;;17.78;56.27;95997.84;108871;1266;23243;-75
2023/10/14 03:31:44;;;;;;;7.30;3.40;;;;;;;17.90;55.45;95993.20;108889;1272;22564;-75
2023/10/14 03:34:17;;;;;;;8.20;3.20;;;;;;;18.01;54.89;95989.21;108928;1265;22518;-76
2023/10/14 03:36:50;;;;;;;6.40;3.20;;;;;;;18.17;53.30;95993.49;108946;1269;22540;-76
2023/10/14 03:39:37;;;;;;;7.00;2.50;;;;;;;18.31;52.23;95987.38;108905;1272;22525;-74
2023/10/14 03:42:13;;;;;;;9.40;3.00;;;;;;;18.46;51.39;95973.02;108836;1272;22535;-74
2023/10/14 03:44:47;;;;;;;9.30;3.30;;;;;;;18.56;50.97;95990.30;108910;1269;22624;-75
2023/10/14 03:47:19;;;;;;;11.20;3.70;;;;;;;18.52;51.44;95986.59;108822;1264;88450;-75
2023/10/14 03:49:56;;;;;;;7.40;2.80;;;;;;;18.45;51.20;95980.00;108779;1273;22520;-75
2023/10/14 03:52:27;;;;;;;8.10;3.20;;;;;;;18.35;51.76;95987.02;108786;1273;24281;-75
2023/10/14 03:55:00;;;;;;;6.60;3.20;;;;;;;18.20;52.30;95985.91;108791;1266;22550;-75
2023/10/14 03:57:37;;;;;;;8.70;3.10;;;;;;;18.04;52.74;95984.40;108792;1273;43335;-76
2023/10/14 04:00:12;;;;;;;8.70;3.60;;;;;;;17.89;53.03;95974.39;108854;1267;22539;-75
2023/10/14 04:02:46;;;;;;;7.10;3.20;;;;;;;17.74;53.56;95975.58;108872;1269;22528;-75
2023/10/14 04:05:19;;;;;;;7.70;3.30;;;;;;;17.59;53.85;95970.91;108842;1265;22482;-75
2023/10/14 04:07:50;;;;;;;9.50;2.80;;;;;;;17.57;53.70;95971.36;108792;1270;48082;-75
2023/10/14 04:10:24;;;;;;;9.20;3.10;;;;;;;17.62;53.66;95965.93;108831;1273;22518;-75
2023/10/14 04:12:57;;;;;;;7.10;3.20;;;;;;;17.67;53.62;95963.25;108823;1273;22626;-75
2023/10/14 04:15:46;;;;;;;9.40;3.60;;;;;;;17.67;53.89;95966.86;108823;1273;22564;-75
2023/10/14 04:18:24;;;;;;;7.30;2.80;;;;;;;17.52;54.15;95967.40;108789;1270;49134;-75
2023/10/14 04:21:15;;;;;;;9.70;3.30;;;;;;;17.38;54.53;95970.89;108954;1272;22978;-75
2023/10/14 04:24:09;;;;;;;12.80;3.70;;;;;;;17.23;54.88;95966.16;108902;1272;22532;-75
2023/10/14 04:26:43;;;;;;;8.60;2.90;;;;;;;17.13;55.09;95958.48;108929;1272;22518;-75
2023/10/14 04:29:22;;;;;;;7.70;3.60;;;;;;;17.07;55.43;95952.96;108928;1272;22508;-75
2023/10/14 04:31:57;;;;;;;9.40;3.60;;;;;;;17.01;55.56;95948.85;108950;1266;23401;-75
2023/10/14 04:34:29;;;;;;;11.70;3.30;;;;;;;16.97;55.79;95940.99;108916;1260;22530;-76
2023/10/14 04:37:07;;;;;;;9.70;3.80;;;;;;;16.96;55.79;95938.05;108852;1265;59115;-76
2023/10/14 04:39:44;;;;;;;9.10;2.90;;;;;;;16.94;55.93;95930.60;108903;1269;22538;-76
2023/10/14 04:42:43;;;;;;;8.50;3.30;;;;;;;16.99;55.74;95932.34;108949;1265;23227;-76
2023/10/14 04:45:16;;;;;;;6.90;3.20;;;;;;;17.04;55.78;95933.13;108991;1263;22512;-76
2023/10/14 04:47:48;;;;;;;7.30;3.00;;;;;;;17.03;56.01;95933.16;108995;1260;44420;-75
2023/10/14 04:50:23;;;;;;;7.00;3.40;;;;;;;16.98;56.17;95935.90;108973;1272;24251;-75
2023/10/14 04:52:54;;;;;;;7.90;3.50;;;;;;;16.95;56.31;95934.29;108893;1269;22841;-75
2023/10/14 04:55:32;;;;;;;7.10;3.40;;;;;;;16.88;56.59;95934.40;108919;1269;24366;-75
2023/10/14 04:58:23;;;;;;;6.80;3.10;;;;;;;16.79;56.80;95932.41;108898;1251;28843;-75
2023/10/14 05:01:00;;;;;;;9.20;3.60;;;;;;;16.70;57.09;95932.88;108945;1272;22534;-75
2023/10/14 05:03:34;;;;;;;6.70;3.10;;;;;;;16.67;57.30;95935.38;108898;1266;22736;-76
2023/10/14 05:06:16;;;;;;;6.70;3.10;;;;;;;16.61;57.46;95935.42;108913;1269;25281;-75
2023/10/14 05:08:51;;;;;;;8.30;3.30;;;;;;;16.57;57.70;95938.80;108948;1266;26801;-75
2023/10/14 05:11:25;;;;;;;10.40;4.00;;;;;;;16.57;57.76;95946.95;108921;1270;23834;-76
2023/10/14 05:14:14;;;;;;;8.40;3.30;;;;;;;16.59;57.89;95952.91;108990;1270;22586;-76
2023/10/14 05:16:53;;;;;;;8.80;3.60;;;;;;;16.61;58.04;95957.85;108924;1266;22630;-75
2023/10/14 05:19:30;;;;;;;8.60;3.60;;;;;;;16.59;58.17;95953.38;108898;1266;24016;-75
2023/10/14 05:22:10;;;;;;;9.90;3.60;;;;;;;16.64;58.39;95954.01;108928;1272;25436;-75
2023/10/14 05:24:48;;;;;;;7.70;3.10;;;;;;;16.87;58.53;95964.48;108950;1250;22583;-75
2023/10/14 05:27:21;;;;;;;10.30;3.70;;;;;;;17.23;58.40;95962.25;108936;1265;22571;-76
2023/10/14 05:29:52;;;;;;;10.10;4.30;;;;;;;17.34;58.26;95964.95;108955;1273;22522;-75
2023/10/14 05:32:30;;;;;;;8.10;3.60;;;;;;;17.38;58.19;95963.24;108965;1269;22595;-76
2023/10/14 05:35:09;;;;;;;9.50;3.40;;;;;;;17.46;58.18;95959.20;108961;1266;22593;-75
2023/10/14 05:37:43;;;;;;;7.80;3.50;;;;;;;17.60;58.13;95956.71;108912;1273;44290;-75
2023/10/14 05:40:16;;;;;;;9.30;4.20;;;;;;;17.92;58.11;95957.93;108988;1266;23811;-76
2023/10/14 05:42:48;;;;;;;8.40;3.80;;;;;;;18.35;57.98;95954.58;108977;1270;22545;-75
2023/10/14 05:45:23;;;;;;;7.60;3.90;;;;;;;18.80;57.58;95955.57;108953;1267;22594;-76
2023/10/14 05:47:54;;;;;;;8.10;3.70;;;;;;;19.14;56.94;95956.08;108933;1266;49545;-76
2023/10/14 05:50:26;;;;;;;6.90;3.60;;;;;;;19.40;56.62;95955.66;108991;1265;22525;-76
2023/10/14 05:52:57;;;;;;;10.80;4.30;;;;;;;19.86;56.75;95951.45;108961;1270;25407;-76
2023/10/14 05:55:30;;;;;;;11.70;4.00;;;;;;;20.41;56.45;95949.59;108965;1269;22592;-76
2023/10/14 05:58:01;;;;;;;8.40;3.80;;;;;;;20.81;55.62;95951.83;108933;1272;48730;-75
2023/10/14 06:00:38;;;;;;;10.80;4.20;;;;;;;20.93;54.83;95950.48;108998;1269;23383;-75
2023/10/14 06:03:13;;;;;;;12.00;4.60;;;;;;;21.03;54.65;95955.20;108976;1273;22541;-75
2023/10/14 06:05:45;;;;;;;11.50;4.70;;;;;;;21.29;54.33;95960.86;108992;1267;22575;-75
2023/10/14 06:08:18;;;;;;;8.70;4.00;;;;;;;21.40;53.85;95964.72;108938;1266;33978;-75
2023/10/14 06:10:50;;;;;;;7.60;4.30;;;;;;;21.48;53.33;95959.20;108936;1272;25440;-76
2023/10/14 06:13:27;;;;;;;11.40;4.30;;;;;;;21.56;53.24;95958.09;108981;1273;24312;-75
2023/10/14 06:16:04;;;;;;;9.80;4.50;;;;;;;21.54;53.13;95953.59;108969;1266;23352;-76
2023/10/14 06:18:37;;;;;;;12.10;4.40;;;;;;;21.60;53.19;95955.45;108896;1273;73535;-77
2023/10/14 06:21:15;;;;;;;10.70;4.90;;;;;;;21.70;53.04;95950.02;108975;1265;22537;-76
2023/10/14 06:23:49;;;;;;;9.10;4.70;;;;;;;21.68;52.51;95968.03;108975;1266;22571;-74
2023/10/14 06:26:21;;;;;;;9.70;4.70;;;;;;;21.72;52.51;95969.41;108965;1269;22555;-75
2023/10/14 06:28:57;;;;;;;12.90;5.40;;;;;;;21.75;52.23;95964.04;108964;1269;22573;-75
2023/10/14 06:31:29;;;;;;;12.20;5.10;;;;;;;21.81;52.26;95962.73;109022;1272;22521;-75
2023/10/14 06:34:08;;;;;;;9.20;4.30;;;;;;;21.92;52.40;95955.77;108952;1269;23047;-75
2023/10/14 06:36:47;;;;;;;10.90;5.00;;;;;;;21.83;51.85;95957.36;109005;1272;22511;-76
2023/10/14 06:39:26;;;;;;;12.10;5.70;;;;;;;21.59;52.04;95958.98;108898;1269;47847;-77
2023/10/14 06:41:59;;;;;;;11.70;5.00;;;;;;;21.31;52.25;95965.74;109049;1266;22715;-75
2023/10/14 06:44:33;;;;;;;10.00;4.70;;;;;;;21.21;52.44;95958.47;108982;1264;22533;-75
2023/10/14 06:47:05;;;;;;;10.70;5.80;;;;;;;21.19;52.83;95950.73;108934;1269;80661;-77
2023/10/14 06:49:41;;;;;;;10.40;5.70;;;;;;;21.17;53.00;95949.02;109027;1269;22559;-76
2023/10/14 06:52:18;;;;;;;9.20;5.10;;;;;;;21.10;52.97;95944.36;109018;1250;22491;-76
2023/10/14 06:54:51;;;;;;;9.60;5.90;;;;;;;21.16;53.41;95942.70;109020;1272;23869;-76
2023/10/14 06:57:23;;;;;;;11.60;5.30;;;;;;;21.35;53.69;95936.52;109000;1266;45154;-76
2023/10/14 06:59:55;;;;;;;8.80;5.40;;;;;;;21.48;53.99;95932.08;109019;1269;22697;-76
2023/10/14 07:02:31;;;;;;;12.30;6.30;;;;;;;21.58;53.63;95924.83;108986;1273;22532;-77
2023/10/14 07:05:04;;;;;;;10.90;5.50;;;;;;;21.68;53.71;95932.89;109013;1273;22530;-76
2023/10/14 07:07:36;;;;;;;11.60;5.80;;;;;;;21.85;53.76;95939.65;108941;1266;69950;-77
2023/10/14 07:10:16;;;;;;;7.50;4.80;;;;;;;21.85;52.63;95941.20;108855;1273;25930;-76
2023/10/14 07:12:51;;;;;;;9.50;5.40;;;;;;;21.81;51.64;95932.35;108970;1265;22518;-75
2023/10/14 07:15:24;;;;;;;10.70;5.40;;;;;;;21.75;51.51;95938.38;108967;1265;22572;-76
2023/10/14 07:17:56;;;;;;;9.70;4.90;;;;;;;21.81;51.63;95930.05;108969;1269;39840;-76
2023/10/14 07:20:29;;;;;;;10.50;5.50;;;;;;;21.89;51.67;95942.55;109006;1270;22583;-76
2023/10/14 07:23:02;;;;;;;11.60;5.20;;;;;;;22.07;51.62;95939.85;109013;1266;22528;-76
2023/10/14 07:26:12;;;;;;;8.30;4.90;;;;;;;22.10;50.04;95932.10;108977;1265;22609;-76
2023/10/14 07:28:51;;;;;;;13.40;6.00;;;;;;;22.03;50.24;95943.41;108880;1270;82760;-75
2023/10/14 07:31:28;;;;;;;11.10;5.20;;;;;;;22.12;50.74;95947.95;108932;1262;25263;-75
2023/10/14 07:34:02;;;;;;;7.80;4.80;;;;;;;22.36;51.00;95948.30;108970;1267;22570;-75
2023/10/14 07:36:36;;;;;;;10.50;5.30;;;;;;;22.46;50.59;95948.92;108951;1273;22555;-76
2023/10/14 07:39:27;;;;;;;11.20;4.80;;;;;;;22.47;49.70;95947.54;108897;1269;132707;-76
2023/10/14 07:41:59;;;;;;;9.90;4.90;;;;;;;22.27;49.14;95946.64;108968;1265;22525;-76
2023/10/14 07:44:31;;;;;;;11.20;6.30;;;;;;;22.26;49.38;95943.39;108936;1272;25117;-76
2023/10/14 07:47:05;;;;;;;7.90;5.40;;;;;;;22.23;49.09;95936.10;108896;1263;88559;-76
2023/10/14 07:49:39;;;;;;;9.10;4.90;;;;;;;22.25;49.18;95943.63;108979;1268;25973;-75
2023/10/14 07:52:15;;;;;;;17.30;5.10;;;;;;;22.25;48.55;95934.89;108900;1266;22642;-75
2023/10/14 07:54:59;;;;;;;11.90;5.50;;;;;;;22.24;48.41;95934.49;109015;1266;22477;-76
2023/10/14 07:57:33;;;;;;;9.80;5.10;;;;;;;22.20;48.75;95934.21;105003;1269;5267829;-76
2023/10/14 08:00:12;;;;;;;9.40;5.30;;;;;;;22.22;49.17;95935.48;108998;1270;22590;-75
2023/10/14 08:02:44;;;;;;;9.30;4.90;;;;;;;22.20;47.73;95916.86;108913;1260;22594;-75
2023/10/14 08:05:19;;;;;;;7.50;4.30;;;;;;;22.22;46.50;95930.61;108976;1268;24209;-76
2023/10/14 08:07:53;;;;;;;7.40;4.50;;;;;;;22.29;46.55;95933.92;108854;1265;54195;-77
2023/10/14 08:10:32;;;;;;;8.00;5.10;;;;;;;22.38;47.43;95943.82;108998;1265;24242;-76
2023/10/14 08:13:08;;;;;;;8.50;4.30;;;;;;;22.46;46.86;95947.38;108908;1259;25921;-75
2023/10/14 08:15:44;;;;;;;8.30;4.50;;;;;;;22.47;44.89;95937.66;109037;1266;22608;-77
2023/10/14 08:18:17;;;;;;;6.60;4.10;;;;;;;22.51;45.57;95953.20;107465;1269;1984961;-76
2023/10/14 08:20:53;;;;;;;7.90;4.50;;;;;;;22.62;46.12;95961.28;108983;1268;22577;-76
2023/10/14 08:23:30;;;;;;;6.30;4.00;;;;;;;22.91;46.60;95967.96;108975;1273;22520;-77
2023/10/14 08:26:12;;;;;;;9.10;4.50;;;;;;;23.30;46.86;95974.07;108767;1273;241655;-76
2023/10/14 08:28:49;;;;;;;8.90;4.10;;;;;;;23.50;45.91;95971.88;108853;1273;110760;-76
2023/10/14 08:31:23;;;;;;;11.30;4.50;;;;;;;23.46;45.45;95966.13;108967;1266;22730;-76
2023/10/14 08:33:54;;;;;;;8.40;4.20;;;;;;;23.46;45.30;95962.96;108903;1262;24562;-76
2023/10/14 08:36:26;;;;;;;7.30;3.70;;;;;;;23.49;44.97;95954.25;108960;1272;23336;-76
2023/10/14 08:38:59;;;;;;;8.30;4.20;;;;;;;23.39;44.63;95958.60;108872;1262;93677;-76
2023/10/14 08:41:36;;;;;;;9.70;5.50;;;;;;;23.40;45.45;95964.64;108918;1269;22602;-76
2023/10/14 08:44:18;;;;;;;8.00;4.10;;;;;;;23.55;46.42;95961.42;108902;1266;22532;-76
2023/10/14 08:46:52;;;;;;;9.90;4.70;;;;;;;23.70;46.62;95958.73;108990;1269;24908;-75
2023/10/14 08:49:27;;;;;;;7.80;4.30;;;;;;;23.83;46.06;95955.86;108895;1273;45294;-75
2023/10/14 08:52:01;;;;;;;6.80;4.70;;;;;;;23.88;46.15;95954.10;108949;1273;22545;-76
2023/10/14 08:54:33;;;;;;;9.30;4.40;;;;;;;23.90;46.02;95955.18;108962;1269;22522;-76
2023/10/14 08:57:09;;;;;;;9.30;4.80;;;;;;;23.91;46.10;95955.11;108901;1266;22567;-76
2023/10/14 08:59:41;;;;;;;9.00;4.30;;;;;;;23.99;46.24;95956.47;108859;1266;22525;-76
2023/10/14 09:02:15;;;;;;;6.70;3.90;;;;;;;23.96;45.14;95951.81;108847;1266;22511;-75
2023/10/14 09:04:47;;;;;;;8.20;4.40;;;;;;;23.82;44.77;95958.17;108877;1265;22596;-75
2023/10/14 09:07:23;;;;;;;8.20;4.00;;;;;;;23.76;45.05;95968.11;108787;1267;45034;-75
2023/10/14 09:09:56;;;;;;;10.40;4.70;;;;;;;23.74;44.38;95975.99;108857;1266;25422;-75
2023/10/14 09:12:28;;;;;;;7.50;4.70;;;;;;;23.60;44.67;95983.41;108871;1273;22517;-75
2023/10/14 09:15:01;;;;;;;8.20;4.90;;;;;;;23.46;43.99;95977.44;108903;1266;22521;-76
2023/10/14 09:17:35;;;;;;;8.90;4.70;;;;;;;23.22;43.72;95976.39;108861;1273;23795;-75
2023/10/14 09:20:29;;;;;;;10.80;5.50;;;;;;;23.14;44.46;95972.88;108817;1266;24034;-74
2023/10/14 09:23:19;;;;;;;7.80;4.60;;;;;;;23.19;45.03;95968.64;110155;1273;25424;-75
2023/10/14 09:25:52;;;;;;;8.40;5.10;;;;;;;23.17;44.49;95965.17;108858;1273;22521;-76
2023/10/14 09:28:26;;;;;;;8.80;4.70;;;;;;;23.07;44.77;95970.33;108819;1265;24248;-75
2023/10/14 09:30:59;;;;;;;8.60;5.20;;;;;;;23.10;44.54;95967.44;108858;1269;22523;-76
2023/10/14 09:33:32;;;;;;;9.40;5.20;;;;;;;23.10;44.37;95963.89;108884;1266;22564;-76
2023/10/14 09:36:05;;;;;;;10.50;5.20;;;;;;;23.00;43.99;95966.13;108878;1269;22518;-71
2023/10/14 09:38:39;;;;;;;10.10;5.20;;;;;;;22.94;43.30;95965.61;108860;1269;22534;-69
2023/10/14 09:41:15;;;;;;;8.00;4.80;;;;;;;23.04;43.46;95957.02;108882;1265;23683;-71
2023/10/14 09:43:47;;;;;;;9.90;5.30;;;;;;;22.97;41.85;95962.08;108803;1266;23795;-71
2023/10/14 09:46:20;;;;;;;7.40;5.10;;;;;;;22.96;43.32;95972.95;108815;1273;23657;-71
2023/10/14 09:48:55;;;;;;;10.90;5.40;;;;;;;23.07;44.24;95975.83;108857;1266;22565;-70
2023/10/14 09:51:28;;;;;;;8.40;5.10;;;;;;;23.24;44.13;95972.10;108868;1266;22531;-71
2023/10/14 09:54:06;;;;;;;8.50;5.40;;;;;;;23.28;44.36;95977.23;108810;1272;22542;-72
2023/10/14 09:56:45;;;;;;;7.10;4.90;;;;;;;23.30;43.71;95969.74;108883;1270;25226;-72
2023/10/14 09:59:18;;;;;;;10.30;5.80;;;;;;;23.20;43.14;95954.92;108782;1270;24216;-71
2023/10/14 10:01:49;;;;;;;8.20;5.70;;;;;;;23.07;43.39;95962.93;108820;1266;22514;-71
2023/10/14 10:04:26;;;;;;;9.80;5.50;;;;;;;22.96;43.27;95944.14;108839;1266;25223;-71
2023/10/14 10:07:10;;;;;;;12.10;5.90;;;;;;;22.92;43.68;95940.09;108810;1269;24244;-71
2023/10/14 10:10:06;;;;;;;12.10;6.40;;;;;;;22.93;43.94;95938.71;108853;1266;22739;-71
2023/10/14 10:12:42;;;;;;;11.30;6.20;;;;;;;23.00;44.14;95933.83;108781;1266;22517;-72
2023/10/14 10:15:19;;;;;;;13.30;6.30;;;;;;;23.08;43.76;95941.39;108825;1269;22691;-71
2023/10/14 10:18:02;;;;;;;13.00;6.00;;;;;;;23.20;44.90;95945.25;108823;1269;22602;-72
2023/10/14 10:20:40;;;;;;;10.70;6.10;;;;;;;23.23;44.01;95936.45;108804;1267;25268;-73
2023/10/14 10:23:14;;;;;;;10.50;6.10;;;;;;;23.31;45.25;95933.73;108857;1272;22909;-71
2023/10/14 10:25:51;;;;;;;10.60;6.20;;;;;;;23.42;45.51;95934.89;108744;1251;22568;-72
2023/10/14 10:28:45;;;;;;;9.60;5.40;;;;;;;23.48;45.95;95936.39;108843;1273;25406;-72
2023/10/14 10:31:24;;;;;;;12.70;5.70;;;;;;;23.66;45.09;95926.32;108841;1273;23416;-73
2023/10/14 10:33:59;;;;;;;10.40;5.70;;;;;;;23.69;45.23;95929.04;108895;1269;23654;-72
2023/10/14 10:36:33;;;;;;;12.30;6.00;;;;;;;23.80;45.04;95928.16;108914;1269;22633;-72
2023/10/14 10:39:16;;;;;;;12.00;6.00;;;;;;;23.81;44.88;95929.80;108837;1266;22570;-72
2023/10/14 10:41:53;;;;;;;9.00;5.70;;;;;;;23.89;45.90;95928.50;108915;1269;22517;-72
2023/10/14 10:44:27;;;;;;;11.70;6.20;;;;;;;24.07;45.41;95920.98;108807;1269;23735;-72
2023/10/14 10:47:02;;;;;;;13.40;6.00;;;;;;;24.11;45.49;95912.27;108859;1266;22520;-72
2023/10/14 10:49:56;;;;;;;11.70;6.00;;;;;;;24.18;44.95;95911.49;108810;1272;22519;-72
2023/10/14 10:52:29;;;;;;;9.10;5.80;;;;;;;24.12;45.11;95915.29;108840;1273;22528;-74
2023/10/14 10:55:01;;;;;;;9.70;6.20;;;;;;;24.18;44.50;95918.08;108821;1272;22710;-75
2023/10/14 10:57:36;;;;;;;12.20;6.20;;;;;;;24.20;44.07;95909.96;108907;1259;22578;-76
2023/10/14 11:00:17;;;;;;;10.20;5.70;;;;;;;24.17;44.19;95909.09;108837;1270;23843;-76
2023/10/14 11:02:50;;;;;;;12.60;5.80;;;;;;;24.21;45.32;95908.34;108908;1266;22607;-75
2023/10/14 11:05:25;;;;;;;9.20;5.20;;;;;;;24.31;44.30;95906.84;108848;1273;23233;-77
2023/10/14 11:08:00;;;;;;;10.40;6.40;;;;;;;24.24;44.32;95903.09;108766;1273;51021;-76
2023/10/14 11:10:34;;;;;;;7.10;5.80;;;;;;;24.22;44.55;95902.63;108781;1273;22692;-75
2023/10/14 11:13:11;;;;;;;8.70;5.80;;;;;;;24.21;44.08;95899.05;108817;1272;22892;-74
2023/10/14 11:15:45;;;;;;;8.70;5.10;;;;;;;24.16;45.02;95900.66;108868;1267;22517;-74
2023/10/14 11:18:18;;;;;;;11.80;6.70;;;;;;;24.16;45.38;95895.86;108857;1266;25636;-77
2023/10/14 11:20:50;;;;;;;10.10;6.30;;;;;;;24.14;45.31;95899.03;108836;1270;24433;-76
2023/10/14 11:23:21;;;;;;;6.90;5.30;;;;;;;24.14;45.54;95895.71;108795;1273;25997;-76
2023/10/14 11:25:55;;;;;;;8.60;5.40;;;;;;;24.15;45.36;95887.89;108773;1273;25448;-76
2023/10/14 11:28:27;;;;;;;8.70;5.00;;;;;;;24.03;45.17;95885.77;108810;1273;25216;-76
2023/10/14 11:31:02;;;;;;;9.80;5.80;;;;;;;23.98;45.65;95884.91;108785;1271;22483;-76
2023/10/14 11:33:38;;;;;;;8.60;5.70;;;;;;;23.96;45.29;95879.49;108890;1265;22638;-76
2023/10/14 11:36:17;;;;;;;12.50;6.40;;;;;;;23.93;45.64;95873.69;108878;1273;22533;-76
2023/10/14 11:38:48;;;;;;;;;;;;;;;24.03;46.43;95876.10;108808;1273;22497;-76
2023/10/14 11:41:20;;;;;;;8.00;5.30;;;;;;;24.09;46.33;95872.88;108856;1272;22517;-76
2023/10/14 11:43:53;;;;;;;7.00;5.20;;;;;;;24.09;46.41;95872.87;108825;1268;23804;-76
2023/10/14 11:46:25;;;;;;;10.20;6.20;;;;;;;24.07;46.76;95872.01;108861;1272;22528;-76
2023/10/14 11:48:56;;;;;;;11.70;6.30;;;;;;;24.10;46.59;95868.63;108774;1269;22525;-77
2023/10/14 11:51:36;;;;;;;8.30;5.50;;;;;;;24.08;46.44;95864.59;108861;1269;22532;-78
2023/10/14 11:54:11;;;;;;;8.20;5.90;;;;;;;23.95;45.09;95862.07;108812;1266;22856;-75
2023/10/14 11:56:43;;;;;;;9.00;5.90;;;;;;;24.01;46.32;95862.71;108859;1271;22534;-76
2023/10/14 11:59:17;;;;;;;10.80;6.30;;;;;;;24.05;45.58;95858.86;108828;1273;23979;-76
2023/10/14 12:01:48;;;;;;;11.00;5.50;;;;;;;23.91;45.21;95855.49;108855;1273;22521;-76
2023/10/14 12:04:19;;;;;;;9.60;5.40;;;;;;;23.77;45.19;95865.05;108861;1272;25234;-76